Lake Charles Regional Airport
KLCH : now visible

Airfield :











YOU CAN JOIN US ON...

 
LOGIN :

Register | Disclaimer

   EN    FR    IT 

 









Legend :    VFR   Marginal VFR   IFR   Intensive IFR   Very Intensive IFR
Visi :
Ceiling :
>= 8 km
>= 3000ft
5 to 8 km
1000 to 3000 ft
1500m to 5 km
500 to 1000 ft
800 to 1500m
200 to 500 ft
< 800m
< 200 ft
Symbols :   Thunderstorms  Fog  Heavy snow  Heavy precipitations  Wind > 20 kt






- Airport Elevation : 15 ft
- IATA code : LCH


KLCH - Lake Charles Regional

CURRENT METAR :
  • 261653Z 04005KT 10SM SCT110 23/20 A2990 RMK AO2 SLP132 T02330200

EXPIRED METARs :
  • 261553Z 02005KT 10SM FEW065 SCT110 23/19 A2992 RMK AO2 SLP140 T02280194
  • 261453Z 02006KT 10SM BKN100 22/20 A2992 RMK AO2 SLP139 T02170200 53004

TAF KLCH
Valid from the 26 at 18:00 until the 27 at 18:00 UTC


261731Z 2618/2718 VRB05KT P6SM VCSH SCT060 SCT110
FM270100 VRB03KT P6SM VCSH SCT050 BKN080
FM271500 30004KT P6SM VCSH FEW035 SCT200
KZHU FIR / North America



MET'MAP, your aeronautical weather chart ! - Copyright ORBIFLY December 2007 - Disclaimer

ORBIFLY MET'MAP TEAM :

Programming & Development : Alexandra Zaïnal
Concept & original design : Baudouin d'Aumeries
Assistance for programming : Marc-Olivier Méhu
Technical & hardware support : Manuel Goepfert

Contact : metmap@orbifly.com




SOURCES & CREDITS :

   NOAA       Earth
Advisory